Time;durP1;ratioP1;P1;durP2;ratioP2;P2;SDS_P1;SDS_P2;PMS_P1;PMS_P2;Temp;Humidity;BMP_temperature;BMP_pressure;BME280_temperature;BME280_humidity;BME280_pressure;Samples;Min_cycle;Max_cycle;Signal;HPM_P1;HPM_P2
2023/07/22 00:02:06;;;;;;;8.77;7.87;;;13.90;99.90;;;;;;5015595;28;20625;-68
2023/07/22 00:04:32;;;;;;;10.83;9.03;;;13.90;99.90;;;;;;5013473;28;20168;-71
2023/07/22 00:06:57;;;;;;;13.30;8.33;;;13.80;99.90;;;;;;5012117;28;20608;-77
2023/07/22 00:09:24;;;;;;;11.20;8.27;;;13.80;99.90;;;;;;5018497;28;20176;-73
2023/07/22 00:11:50;;;;;;;9.53;8.50;;;13.90;99.90;;;;;;5033007;28;20251;-69
2023/07/22 00:14:16;;;;;;;12.63;7.73;;;13.90;99.90;;;;;;5032866;28;20759;-72
2023/07/22 00:16:42;;;;;;;9.27;8.37;;;13.90;99.90;;;;;;5032241;28;20541;-76
2023/07/22 00:19:08;;;;;;;10.63;7.90;;;13.90;99.90;;;;;;5032450;28;20563;-76
2023/07/22 00:21:34;;;;;;;10.43;8.87;;;13.90;99.90;;;;;;5032962;28;20398;-69
2023/07/22 00:24:00;;;;;;;9.30;8.30;;;13.90;99.90;;;;;;5013966;28;20208;-71
2023/07/22 00:26:26;;;;;;;9.67;8.77;;;13.90;99.90;;;;;;5011562;28;20366;-77
2023/07/22 00:28:52;;;;;;;9.00;8.10;;;13.90;99.90;;;;;;5013417;28;20388;-73
2023/07/22 00:31:18;;;;;;;9.67;8.57;;;13.90;99.90;;;;;;5013110;28;20450;-75
2023/07/22 00:33:44;;;;;;;10.10;8.40;;;14.00;99.90;;;;;;5013191;28;20168;-70
2023/07/22 00:36:09;;;;;;;8.50;7.53;;;13.90;99.90;;;;;;5012389;28;20462;-74
2023/07/22 00:38:35;;;;;;;8.50;7.70;;;13.90;99.90;;;;;;5010909;28;20211;-71
2023/07/22 00:41:04;;;;;;;8.87;7.97;;;13.80;99.90;;;;;;5013026;28;20208;-74
2023/07/22 00:43:30;;;;;;;9.27;6.83;;;13.80;99.90;;;;;;5012326;28;20164;-76
2023/07/22 00:45:56;;;;;;;7.60;6.90;;;13.90;99.90;;;;;;5012213;28;20403;-70
2023/07/22 00:48:22;;;;;;;12.70;8.00;;;13.90;99.90;;;;;;5013065;28;20461;-70
2023/07/22 00:50:48;;;;;;;7.43;6.60;;;13.90;99.90;;;;;;5019754;28;20179;-77
2023/07/22 00:53:14;;;;;;;7.93;6.83;;;14.00;99.90;;;;;;5032105;28;20453;-77
2023/07/22 00:55:41;;;;;;;8.17;6.27;;;14.00;99.90;;;;;;5031260;28;20194;-69
2023/07/22 00:58:06;;;;;;;6.83;6.17;;;14.00;99.90;;;;;;5032807;28;20287;-76
2023/07/22 01:00:32;;;;;;;6.80;6.20;;;14.00;99.90;;;;;;5031849;28;20481;-76
2023/07/22 01:02:59;;;;;;;7.90;5.77;;;14.00;99.90;;;;;;5032636;28;20164;-77
2023/07/22 01:05:27;;;;;;;6.30;5.70;;;13.90;99.90;;;;;;5032798;28;20203;-69
2023/07/22 01:07:53;;;;;;;5.20;4.70;;;13.90;99.90;;;;;;5036437;28;20414;-70
2023/07/22 01:10:19;;;;;;;6.60;5.60;;;13.80;99.90;;;;;;5036154;28;20521;-70
2023/07/22 01:12:45;;;;;;;6.40;4.93;;;13.80;99.90;;;;;;5035852;28;20394;-74
2023/07/22 01:15:11;;;;;;;6.50;5.90;;;13.80;99.90;;;;;;5035670;28;20422;-72
2023/07/22 01:17:38;;;;;;;9.03;5.70;;;13.70;99.90;;;;;;5034794;28;21044;-70
2023/07/22 01:20:05;;;;;;;5.97;5.33;;;13.80;99.90;;;;;;5034862;28;20976;-69
2023/07/22 01:22:33;;;;;;;7.60;5.40;;;13.70;99.90;;;;;;5036295;28;20451;-78
2023/07/22 01:24:59;;;;;;;6.27;4.73;;;13.70;99.90;;;;;;5036044;28;20894;-76
2023/07/22 01:27:25;;;;;;;8.27;5.07;;;13.60;99.90;;;;;;5035749;28;20422;-76
2023/07/22 01:29:51;;;;;;;5.10;4.60;;;13.60;99.90;;;;;;5035330;28;20926;-78
2023/07/22 01:32:17;;;;;;;6.03;5.43;;;13.60;99.90;;;;;;5036142;28;20423;-72
2023/07/22 01:34:43;;;;;;;6.30;5.00;;;13.70;99.90;;;;;;5035438;28;20432;-78
2023/07/22 01:37:11;;;;;;;7.53;4.90;;;13.70;99.90;;;;;;5033048;28;20450;-77
2023/07/22 01:39:37;;;;;;;5.30;4.80;;;13.60;99.90;;;;;;5035965;28;20738;-69
2023/07/22 01:42:03;;;;;;;5.00;4.60;;;13.60;99.90;;;;;;5035965;28;20406;-76
2023/07/22 01:44:30;;;;;;;5.60;4.90;;;13.60;99.90;;;;;;5035996;28;20160;-76
2023/07/22 01:46:56;;;;;;;6.33;5.13;;;13.60;99.90;;;;;;5034182;28;20588;-76
2023/07/22 01:49:24;;;;;;;6.77;5.03;;;13.50;99.90;;;;;;5035361;28;20404;-71
2023/07/22 01:51:50;;;;;;;8.10;5.20;;;13.60;99.90;;;;;;5034945;28;20435;-77
2023/07/22 01:54:15;;;;;;;6.40;5.60;;;13.60;99.90;;;;;;5033520;28;20990;-70
2023/07/22 01:56:41;;;;;;;4.93;4.53;;;13.50;99.90;;;;;;5013351;28;20199;-77
2023/07/22 01:59:07;;;;;;;13.03;5.03;;;13.60;99.90;;;;;;5015294;28;20165;-72
2023/07/22 02:01:33;;;;;;;5.47;4.97;;;13.60;99.90;;;;;;5016037;28;20248;-71
2023/07/22 02:03:58;;;;;;;7.37;4.97;;;13.60;99.90;;;;;;5024822;28;20555;-69
2023/07/22 02:06:24;;;;;;;8.13;5.20;;;13.50;99.90;;;;;;5034474;28;20167;-69
2023/07/22 02:08:50;;;;;;;6.00;4.60;;;13.60;99.90;;;;;;5033979;28;20185;-70
2023/07/22 02:11:17;;;;;;;7.80;4.17;;;13.50;99.90;;;;;;5033559;28;20266;-76
2023/07/22 02:13:43;;;;;;;7.90;4.47;;;13.50;99.90;;;;;;5034666;28;20164;-76
2023/07/22 02:16:11;;;;;;;5.27;3.37;;;13.60;99.90;;;;;;5032243;28;20410;-70
2023/07/22 02:18:37;;;;;;;5.80;4.40;;;13.60;99.90;;;;;;5034684;28;20710;-75
2023/07/22 02:21:03;;;;;;;7.80;4.60;;;13.60;99.90;;;;;;5035216;28;20426;-77
2023/07/22 02:23:28;;;;;;;3.83;3.50;;;13.60;99.90;;;;;;5035326;28;20678;-70
2023/07/22 02:25:54;;;;;;;5.10;3.83;;;13.60;99.90;;;;;;5033488;28;20167;-73
2023/07/22 02:28:21;;;;;;;3.73;3.40;;;13.60;99.90;;;;;;5034896;28;20271;-69
2023/07/22 02:30:54;;;;;;;4.53;3.80;;;13.60;99.90;;;;;;5015364;28;20438;-71
2023/07/22 02:33:21;;;;;;;5.00;4.00;;;13.60;99.90;;;;;;5015236;28;20426;-72
2023/07/22 02:35:48;;;;;;;3.80;3.50;;;13.60;99.90;;;;;;5013993;28;20490;-69
2023/07/22 02:38:16;;;;;;;5.03;3.90;;;13.50;99.90;;;;;;5014175;28;20455;-75
2023/07/22 02:40:42;;;;;;;3.30;3.10;;;13.50;99.90;;;;;;5015291;28;20954;-69
2023/07/22 02:43:08;;;;;;;4.80;3.77;;;13.50;99.90;;;;;;5026622;28;20426;-75
2023/07/22 02:45:34;;;;;;;3.63;3.27;;;13.50;99.90;;;;;;5033524;28;20170;-71
2023/07/22 02:48:00;;;;;;;7.30;3.73;;;13.50;99.90;;;;;;5032987;28;20537;-69
2023/07/22 02:50:26;;;;;;;6.37;3.83;;;13.50;99.90;;;;;;5034587;28;20504;-69
2023/07/22 02:52:52;;;;;;;3.70;3.40;;;13.50;99.90;;;;;;5033372;28;20468;-75
2023/07/22 02:55:20;;;;;;;8.00;3.73;;;13.60;99.90;;;;;;5033051;28;20199;-77
2023/07/22 02:57:47;;;;;;;4.20;3.70;;;13.50;99.90;;;;;;5033350;28;20200;-74
2023/07/22 03:00:24;;;;;;;4.63;4.23;;;13.40;99.90;;;;;;5034491;28;20398;-72
2023/07/22 03:02:52;;;;;;;4.07;3.70;;;13.40;99.90;;;;;;5033785;28;20437;-77
2023/07/22 03:05:18;;;;;;;5.57;4.20;;;13.40;99.90;;;;;;5033040;28;20381;-77
2023/07/22 03:07:44;;;;;;;10.33;4.27;;;13.50;99.90;;;;;;5033065;28;20446;-69
2023/07/22 03:10:10;;;;;;;4.07;3.43;;;13.50;99.90;;;;;;5032882;28;20422;-69
2023/07/22 03:12:37;;;;;;;4.13;3.73;;;13.40;99.90;;;;;;5033965;28;20553;-76
2023/07/22 03:15:03;;;;;;;4.60;3.27;;;13.30;99.90;;;;;;5033356;28;20401;-74
2023/07/22 03:17:29;;;;;;;3.80;3.23;;;13.40;99.90;;;;;;5034060;28;20544;-68
2023/07/22 03:19:55;;;;;;;3.63;3.33;;;13.40;99.90;;;;;;5033520;28;20485;-71
2023/07/22 03:22:21;;;;;;;3.50;3.07;;;13.40;99.90;;;;;;5033911;28;20658;-69
2023/07/22 03:24:47;;;;;;;4.03;3.67;;;13.40;99.90;;;;;;5033374;28;20171;-73
2023/07/22 03:27:14;;;;;;;5.90;3.10;;;13.40;99.90;;;;;;5031976;28;20202;-66
2023/07/22 03:29:40;;;;;;;3.80;3.50;;;13.30;99.90;;;;;;5033919;28;20171;-73
2023/07/22 03:32:06;;;;;;;4.33;3.27;;;13.20;99.90;;;;;;5032893;28;20533;-67
2023/07/22 03:34:32;;;;;;;4.17;3.40;;;13.20;99.90;;;;;;5033308;28;20400;-71
2023/07/22 03:36:58;;;;;;;6.70;3.90;;;13.10;99.90;;;;;;5032288;28;20450;-68
2023/07/22 03:39:24;;;;;;;4.60;4.20;;;13.10;99.90;;;;;;5032926;28;20178;-72
2023/07/22 03:41:50;;;;;;;3.53;3.23;;;13.10;99.90;;;;;;5033676;28;20390;-69
2023/07/22 03:44:15;;;;;;;3.60;3.30;;;13.00;99.90;;;;;;5032805;28;20720;-68
2023/07/22 03:46:41;;;;;;;7.67;3.13;;;13.00;99.90;;;;;;5032702;28;20194;-70
2023/07/22 03:49:07;;;;;;;2.93;2.70;;;13.10;99.90;;;;;;5019140;28;20207;-67
2023/07/22 03:51:33;;;;;;;5.37;3.70;;;13.20;99.90;;;;;;5020511;28;20198;-72
2023/07/22 03:53:59;;;;;;;3.53;3.23;;;13.20;99.90;;;;;;5033387;28;20262;-68
2023/07/22 03:56:25;;;;;;;3.70;2.67;;;13.20;99.90;;;;;;5031011;28;20953;-69
2023/07/22 03:58:51;;;;;;;3.27;2.80;;;13.20;99.90;;;;;;5033329;28;20553;-68
2023/07/22 04:01:17;;;;;;;3.30;3.00;;;13.20;99.90;;;;;;5031343;28;20440;-69
2023/07/22 04:03:43;;;;;;;4.10;3.73;;;13.20;99.90;;;;;;5033221;28;20398;-74
2023/07/22 04:06:09;;;;;;;3.23;2.97;;;13.30;99.90;;;;;;5031779;28;20437;-67
2023/07/22 04:08:35;;;;;;;6.30;3.00;;;13.40;99.90;;;;;;5033394;28;20493;-69
2023/07/22 04:11:01;;;;;;;3.60;2.77;;;13.40;99.90;;;;;;5033002;28;20578;-67
2023/07/22 04:13:27;;;;;;;3.33;3.03;;;13.40;99.90;;;;;;5032935;28;20164;-74
2023/07/22 04:15:53;;;;;;;10.23;3.80;;;13.50;99.90;;;;;;5031870;28;20168;-68
2023/07/22 04:18:20;;;;;;;2.80;2.60;;;13.40;99.90;;;;;;5032795;28;20449;-69
2023/07/22 04:20:48;;;;;;;3.27;2.90;;;13.40;99.90;;;;;;5031399;28;20433;-74
2023/07/22 04:23:13;;;;;;;5.40;3.00;;;13.40;99.90;;;;;;5033195;28;20373;-67
2023/07/22 04:25:43;;;;;;;3.60;3.20;;;13.40;99.90;;;;;;5032280;28;20421;-68
2023/07/22 04:28:09;;;;;;;3.40;2.80;;;13.30;99.90;;;;;;5033090;28;20187;-68
2023/07/22 04:30:36;;;;;;;4.20;3.00;;;13.30;99.90;;;;;;5032767;28;20802;-68
2023/07/22 04:33:03;;;;;;;5.20;3.50;;;13.20;99.90;;;;;;5032423;28;20402;-71
2023/07/22 04:35:32;;;;;;;4.30;3.90;;;13.20;99.90;;;;;;5031223;28;20440;-70
2023/07/22 04:37:58;;;;;;;2.87;2.63;;;13.20;99.90;;;;;;5032095;28;20484;-74
2023/07/22 04:40:24;;;;;;;8.70;3.10;;;13.20;99.90;;;;;;5036243;28;20402;-75
2023/07/22 04:42:51;;;;;;;6.43;2.83;;;13.30;99.90;;;;;;5037175;28;20160;-68
2023/07/22 04:45:20;;;;;;;4.07;3.47;;;13.30;99.90;;;;;;5036308;28;20401;-73
2023/07/22 04:47:47;;;;;;;3.30;2.57;;;13.30;99.90;;;;;;5036950;28;20435;-71
2023/07/22 04:50:13;;;;;;;3.57;3.27;;;13.30;99.90;;;;;;5035804;28;20513;-75
2023/07/22 04:52:41;;;;;;;4.47;3.40;;;13.20;99.90;;;;;;5036684;28;20406;-68
2023/07/22 04:55:10;;;;;;;4.47;3.47;;;13.10;99.90;;;;;;5034433;28;20414;-72
2023/07/22 04:57:38;;;;;;;5.93;2.97;;;13.10;99.90;;;;;;5036280;28;20807;-69
2023/07/22 05:00:04;;;;;;;3.63;3.20;;;13.10;99.90;;;;;;5036502;28;20377;-75
2023/07/22 05:02:31;;;;;;;5.20;3.73;;;13.10;99.90;;;;;;5035962;28;20425;-68
2023/07/22 05:04:57;;;;;;;4.03;3.17;;;13.20;99.90;;;;;;5036420;28;20398;-70
2023/07/22 05:07:23;;;;;;;4.30;3.10;;;13.20;99.90;;;;;;5035727;28;20422;-74
2023/07/22 05:09:49;;;;;;;4.90;3.37;;;13.30;99.90;;;;;;5035888;28;20377;-73
2023/07/22 05:12:14;;;;;;;2.97;2.67;;;13.40;99.90;;;;;;5035029;28;20421;-74
2023/07/22 05:14:40;;;;;;;6.33;3.37;;;13.50;99.90;;;;;;5036318;28;20402;-73
2023/07/22 05:17:06;;;;;;;3.87;2.93;;;13.50;99.90;;;;;;5027839;28;20208;-70
2023/07/22 05:19:31;;;;;;;3.20;2.50;;;13.50;99.90;;;;;;5016116;28;20176;-74
2023/07/22 05:21:57;;;;;;;4.47;3.27;;;13.50;99.90;;;;;;5034795;28;20180;-74
2023/07/22 05:24:23;;;;;;;5.53;2.97;;;13.60;99.90;;;;;;5036327;28;20168;-75
2023/07/22 05:26:48;;;;;;;4.60;3.00;;;13.50;99.90;;;;;;5034864;28;20535;-68
2023/07/22 05:29:14;;;;;;;3.30;3.00;;;13.40;99.90;;;;;;5036183;28;20168;-69
2023/07/22 05:31:41;;;;;;;3.40;3.10;;;13.40;99.90;;;;;;5035525;28;20262;-69
2023/07/22 05:34:07;;;;;;;3.70;2.87;;;13.40;99.90;;;;;;5034387;28;20177;-69
2023/07/22 05:36:32;;;;;;;4.93;3.27;;;13.50;99.90;;;;;;5035037;28;20497;-72
2023/07/22 05:38:58;;;;;;;2.77;2.57;;;13.60;99.90;;;;;;5035952;28;20210;-75
2023/07/22 05:41:26;;;;;;;2.80;2.60;;;13.70;1.00;;;;;;5032484;28;20204;-74
2023/07/22 05:43:51;;;;;;;2.77;2.37;;;13.70;1.00;;;;;;5017642;28;20569;-75
2023/07/22 05:46:17;;;;;;;7.40;2.83;;;13.70;1.00;;;;;;5014363;28;20410;-69
2023/07/22 05:48:43;;;;;;;2.80;2.60;;;13.70;1.00;;;;;;5015433;28;20180;-69
2023/07/22 05:51:09;;;;;;;4.37;2.97;;;13.70;99.90;;;;;;5015832;28;20168;-75
2023/07/22 05:53:35;;;;;;;2.73;2.50;;;13.70;1.00;;;;;;5016009;28;20172;-75
2023/07/22 05:56:00;;;;;;;3.47;2.33;;;13.80;1.00;;;;;;5017024;28;22308;-76
2023/07/22 05:58:26;;;;;;;2.57;2.33;;;13.80;1.00;;;;;;5035484;28;20217;-68
2023/07/22 06:00:54;;;;;;;2.77;2.37;;;13.70;99.90;;;;;;5035625;28;20195;-75
2023/07/22 06:03:21;;;;;;;2.10;1.90;;;13.80;99.90;;;;;;5034176;28;20205;-74
2023/07/22 06:05:46;;;;;;;2.77;2.50;;;13.80;99.90;;;;;;5033025;28;20401;-70
2023/07/22 06:08:12;;;;;;;2.53;2.37;;;13.90;99.90;;;;;;5035432;28;20926;-72
2023/07/22 06:10:40;;;;;;;2.90;2.70;;;14.00;99.90;;;;;;5035177;28;20691;-76
2023/07/22 06:13:06;;;;;;;3.50;2.23;;;14.10;99.90;;;;;;5035369;28;20763;-68
2023/07/22 06:15:32;;;;;;;5.30;3.30;;;14.20;99.90;;;;;;5033227;28;20423;-69
2023/07/22 06:17:59;;;;;;;2.47;2.33;;;14.20;99.90;;;;;;5035185;28;20215;-75
2023/07/22 06:20:25;;;;;;;2.40;2.20;;;14.20;99.90;;;;;;5035191;28;20394;-69
2023/07/22 06:22:50;;;;;;;2.50;2.30;;;14.30;99.90;;;;;;5034522;28;20394;-70
2023/07/22 06:25:16;;;;;;;2.90;2.60;;;14.40;99.90;;;;;;5032556;28;20423;-72
2023/07/22 06:27:42;;;;;;;4.17;2.73;;;14.50;99.90;;;;;;5035225;28;20191;-76
2023/07/22 06:30:08;;;;;;;4.77;2.37;;;14.60;99.90;;;;;;5028356;28;20656;-74
2023/07/22 06:32:36;;;;;;;2.77;2.50;;;14.80;99.90;;;;;;5015146;28;20182;-73
2023/07/22 06:35:03;;;;;;;2.47;2.27;;;14.90;99.90;;;;;;5014636;28;20403;-72
2023/07/22 06:37:28;;;;;;;3.93;2.30;;;14.90;99.90;;;;;;5015179;28;20473;-67
2023/07/22 06:39:54;;;;;;;4.50;2.30;;;14.90;99.90;;;;;;5015183;28;20899;-72
2023/07/22 06:42:20;;;;;;;2.60;2.40;;;14.80;99.90;;;;;;5013752;28;20164;-73
2023/07/22 06:44:45;;;;;;;4.97;2.57;;;14.80;99.90;;;;;;5026962;28;20183;-72
2023/07/22 06:47:11;;;;;;;5.30;2.30;;;14.80;99.90;;;;;;5033906;28;20663;-70
2023/07/22 06:49:37;;;;;;;3.00;2.23;;;14.80;99.90;;;;;;5034590;28;20191;-72
2023/07/22 06:52:03;;;;;;;2.37;2.17;;;14.70;99.90;;;;;;5034494;28;20225;-73
2023/07/22 06:54:29;;;;;;;3.93;2.10;;;14.60;99.90;;;;;;5032834;28;20429;-66
2023/07/22 06:56:55;;;;;;;2.03;1.93;;;14.50;99.90;;;;;;5018921;28;20514;-66
2023/07/22 06:59:21;;;;;;;2.30;1.87;;;14.50;99.90;;;;;;5012599;28;20172;-73
2023/07/22 07:01:46;;;;;;;2.10;1.90;;;14.50;99.90;;;;;;5012428;28;20191;-68
2023/07/22 07:04:12;;;;;;;4.17;1.93;;;14.50;99.90;;;;;;5014654;28;20172;-68
2023/07/22 07:06:40;;;;;;;3.80;1.80;;;14.60;99.90;;;;;;5013717;28;20220;-68
2023/07/22 07:09:06;;;;;;;1.63;1.53;;;14.40;99.90;;;;;;5020889;28;20180;-73
2023/07/22 07:11:32;;;;;;;2.73;2.00;;;14.30;99.90;;;;;;5013193;28;20981;-70
2023/07/22 07:13:58;;;;;;;2.93;1.87;;;14.30;99.90;;;;;;5014587;28;20168;-66
2023/07/22 07:16:28;;;;;;;1.40;1.27;;;14.30;99.90;;;;;;5012751;28;20165;-74
2023/07/22 07:18:55;;;;;;;7.63;2.00;;;14.40;99.90;;;;;;5013456;28;20451;-74
2023/07/22 07:21:21;;;;;;;1.73;1.63;;;14.50;99.90;;;;;;5014263;28;20439;-74
2023/07/22 07:23:48;;;;;;;1.93;1.83;;;14.50;99.90;;;;;;5014474;28;20395;-69
2023/07/22 07:26:14;;;;;;;1.80;1.70;;;14.60;99.90;;;;;;5012973;28;20486;-72
2023/07/22 07:28:40;;;;;;;3.03;2.13;;;14.70;99.90;;;;;;5014681;28;20415;-74
2023/07/22 07:31:06;;;;;;;2.73;1.93;;;14.70;99.90;;;;;;5029527;28;20441;-69
2023/07/22 07:33:33;;;;;;;1.83;1.70;;;14.80;99.90;;;;;;5029598;28;20414;-74
2023/07/22 07:35:59;;;;;;;2.57;2.37;;;14.90;99.90;;;;;;5013356;28;20410;-73
2023/07/22 07:38:25;;;;;;;3.30;1.80;;;15.00;99.90;;;;;;5013003;28;20541;-74
2023/07/22 07:41:11;;;;;;;2.37;1.67;;;15.00;99.90;;;;;;5014163;28;20400;-69
2023/07/22 07:43:37;;;;;;;1.73;1.63;;;15.10;99.90;;;;;;5014171;28;20465;-69
2023/07/22 07:46:23;;;;;;;2.33;1.33;;;15.30;99.90;;;;;;5029606;28;20978;-74
2023/07/22 07:48:51;;;;;;;2.83;1.80;;;15.40;99.90;;;;;;5033403;28;20426;-73
2023/07/22 07:51:18;;;;;;;3.63;2.03;;;15.40;99.90;;;;;;5033005;28;20425;-70
2023/07/22 07:53:49;;;;;;;2.33;1.57;;;15.60;99.90;;;;;;5033573;28;20402;-69
2023/07/22 07:56:16;;;;;;;1.60;1.37;;;15.60;94.10;;;;;;5031679;28;20426;-70
2023/07/22 07:58:42;;;;;;;5.13;2.00;;;15.60;46.10;;;;;;5032774;28;20550;-74
2023/07/22 08:01:08;;;;;;;2.50;1.47;;;15.50;1.00;;;;;;5032948;28;20399;-68
2023/07/22 08:03:35;;;;;;;7.43;2.07;;;15.70;5.00;;;;;;5033494;28;20398;-73
2023/07/22 08:06:02;;;;;;;3.53;1.83;;;15.90;11.90;;;;;;5031030;28;20167;-74
2023/07/22 08:08:28;;;;;;;5.67;1.40;;;16.00;3.00;;;;;;5031525;28;20927;-73
2023/07/22 08:11:01;;;;;;;4.33;1.50;;;16.10;7.40;;;;;;5033101;28;20406;-68
2023/07/22 08:13:29;;;;;;;1.60;1.40;;;16.20;1.00;;;;;;5033171;28;20222;-74
2023/07/22 08:15:55;;;;;;;2.50;1.17;;;16.40;1.00;;;;;;5028766;28;20398;-73
2023/07/22 08:18:21;;;;;;;6.80;1.70;;;16.30;1.00;;;;;;5012611;28;20463;-73
2023/07/22 08:20:47;;;;;;;1.37;1.20;;;16.30;1.00;;;;;;5013453;28;20186;-69
2023/07/22 08:23:13;;;;;;;3.63;1.20;;;16.20;1.00;;;;;;5020626;28;20643;-73
2023/07/22 08:25:39;;;;;;;1.77;1.30;;;16.20;1.00;;;;;;5032082;28;20456;-69
2023/07/22 08:28:04;;;;;;;1.63;1.53;;;16.40;1.00;;;;;;5032990;28;20422;-73
2023/07/22 08:30:30;;;;;;;1.53;1.33;;;16.50;1.00;;;;;;5033138;28;20529;-74
2023/07/22 08:32:57;;;;;;;1.20;1.10;;;16.50;1.00;;;;;;5033046;28;20184;-69
2023/07/22 08:35:22;;;;;;;1.20;1.10;;;16.50;1.00;;;;;;5030941;28;20229;-72
2023/07/22 08:37:48;;;;;;;2.57;1.80;;;16.50;1.00;;;;;;5024593;28;20812;-71
2023/07/22 08:40:14;;;;;;;1.60;1.50;;;16.50;1.00;;;;;;5013101;28;20177;-70
2023/07/22 08:42:41;;;;;;;5.70;1.57;;;16.70;1.00;;;;;;5012460;28;20175;-71
2023/07/22 08:45:09;;;;;;;2.67;1.57;;;16.80;1.00;;;;;;5012221;28;20215;-74
2023/07/22 08:47:38;;;;;;;1.93;1.40;;;16.90;1.00;;;;;;5011647;28;20430;-70
2023/07/22 08:50:07;;;;;;;5.80;2.03;;;17.00;1.00;;;;;;5012306;28;20403;-74
2023/07/22 08:52:34;;;;;;;3.30;1.80;;;17.00;1.00;;;;;;5031618;28;20931;-69
2023/07/22 08:55:01;;;;;;;2.80;1.13;;;17.00;1.00;;;;;;5032450;28;20480;-73
2023/07/22 08:57:29;;;;;;;1.47;0.90;;;17.20;1.00;;;;;;5031619;28;20442;-74
2023/07/22 08:59:56;;;;;;;3.90;1.50;;;17.30;1.00;;;;;;5032804;28;20401;-69
2023/07/22 09:02:27;;;;;;;1.63;1.53;;;17.50;1.00;;;;;;5029977;28;20415;-69
2023/07/22 09:04:53;;;;;;;1.30;1.20;;;17.60;1.00;;;;;;5012813;28;20449;-71
2023/07/22 09:07:19;;;;;;;1.20;1.07;;;17.80;1.00;;;;;;5012244;28;20431;-73
2023/07/22 09:09:46;;;;;;;1.93;1.47;;;17.70;1.00;;;;;;5012981;28;20247;-74
2023/07/22 09:12:14;;;;;;;1.60;1.50;;;17.70;1.00;;;;;;5013056;28;20399;-73
2023/07/22 09:14:41;;;;;;;1.50;1.03;;;17.70;99.90;;;;;;5012873;28;20445;-69
2023/07/22 09:17:06;;;;;;;2.70;1.20;;;17.70;99.90;;;;;;5011251;28;20454;-70
2023/07/22 09:19:32;;;;;;;3.57;1.20;;;17.60;99.90;;;;;;5014550;28;20427;-73
2023/07/22 09:21:58;;;;;;;1.37;1.20;;;17.70;99.90;;;;;;5012942;28;20165;-74
2023/07/22 09:24:27;;;;;;;3.37;1.27;;;17.50;99.90;;;;;;5013347;28;20164;-73
2023/07/22 09:26:54;;;;;;;5.23;1.37;;;17.60;99.90;;;;;;5017103;28;20219;-74
2023/07/22 09:29:36;;;;;;;1.53;1.07;;;17.90;99.90;;;;;;5016853;28;20399;-74
2023/07/22 09:32:03;;;;;;;1.30;1.20;;;18.10;99.90;;;;;;5028216;28;20481;-71
2023/07/22 09:34:28;;;;;;;2.80;1.10;;;18.40;99.90;;;;;;5036396;28;20398;-73
2023/07/22 09:37:00;;;;;;;1.47;0.93;;;18.80;99.90;;;;;;5032815;28;20426;-75
2023/07/22 09:39:26;;;;;;;2.33;1.07;;;18.90;99.90;;;;;;5036203;28;20501;-70
2023/07/22 09:41:55;;;;;;;1.20;1.00;;;19.00;99.90;;;;;;5036219;28;20398;-75
2023/07/22 09:44:22;;;;;;;1.90;1.20;;;19.10;99.90;;;;;;5036511;28;20442;-71
2023/07/22 09:46:49;;;;;;;2.70;1.10;;;19.20;99.90;;;;;;5034068;28;20441;-70
2023/07/22 09:49:17;;;;;;;2.50;1.70;;;19.20;99.90;;;;;;5036048;28;20491;-73
2023/07/22 09:51:43;;;;;;;1.23;1.13;;;19.10;99.90;;;;;;5035887;28;20418;-73
2023/07/22 09:54:10;;;;;;;1.20;1.10;;;19.10;99.90;;;;;;5035167;28;20422;-73
2023/07/22 09:56:47;;;;;;;1.67;1.40;;;19.10;99.90;;;;;;5033064;28;20460;-70
2023/07/22 09:59:13;;;;;;;3.00;1.30;;;19.10;99.90;;;;;;5035875;28;20410;-70
2023/07/22 10:01:40;;;;;;;1.20;0.90;;;18.90;99.90;;;;;;5035207;28;20434;-71
2023/07/22 10:04:06;;;;;;;1.53;1.20;;;18.60;99.90;;;;;;5035882;28;20395;-70
2023/07/22 10:06:33;;;;;;;2.43;1.20;;;18.20;99.90;;;;;;5033388;28;20426;-71
2023/07/22 10:09:07;;;;;;;3.07;1.33;;;18.00;99.90;;;;;;5035777;28;20405;-69
2023/07/22 10:11:34;;;;;;;1.97;1.33;;;17.90;99.90;;;;;;5035604;28;20536;-73
2023/07/22 10:14:02;;;;;;;1.50;1.10;;;17.80;99.90;;;;;;5033088;28;20971;-73
2023/07/22 10:16:28;;;;;;;2.80;1.20;;;17.60;99.90;;;;;;5034601;28;20402;-69
2023/07/22 10:18:55;;;;;;;2.10;1.23;;;17.50;99.90;;;;;;5035397;28;20452;-73
2023/07/22 10:21:21;;;;;;;1.90;1.67;;;17.50;99.90;;;;;;5035610;28;20414;-74
2023/07/22 10:23:48;;;;;;;2.10;1.60;;;17.90;1.00;;;;;;5035698;28;20907;-73
2023/07/22 10:26:18;;;;;;;2.20;1.67;;;18.40;1.00;;;;;;5034407;28;20398;-73
2023/07/22 10:28:45;;;;;;;2.13;1.30;;;18.70;1.00;;;;;;5034247;28;20448;-69
2023/07/22 10:31:12;;;;;;;2.13;1.30;;;18.70;1.00;;;;;;5034377;28;20914;-73
2023/07/22 10:33:38;;;;;;;2.90;2.00;;;18.40;99.90;;;;;;5035359;28;20886;-67
2023/07/22 10:36:14;;;;;;;3.20;1.50;;;17.90;99.90;;;;;;5033485;28;20414;-70
2023/07/22 10:38:40;;;;;;;1.43;1.30;;;17.20;1.00;;;;;;5035130;28;20188;-67
2023/07/22 10:41:16;;;;;;;1.30;1.10;;;16.90;1.00;;;;;;5035289;28;20754;-66
2023/07/22 10:43:54;;;;;;;5.27;1.70;;;16.70;1.00;;;;;;5015384;28;20649;-72
2023/07/22 10:46:34;;;;;;;6.23;1.20;;;16.60;1.00;;;;;;5014273;28;20490;-73
2023/07/22 10:49:16;;;;;;;1.90;1.43;;;16.90;1.00;;;;;;5015114;28;20461;-74
2023/07/22 10:51:47;;;;;;;4.90;1.30;;;17.80;1.00;;;;;;5014168;28;20412;-69
2023/07/22 10:54:14;;;;;;;1.43;1.33;;;18.80;1.00;;;;;;5014219;28;20416;-68
2023/07/22 10:56:44;;;;;;;2.73;1.40;;;19.60;1.00;;;;;;5017952;28;20460;-67
2023/07/22 10:59:11;;;;;;;4.40;1.60;;;19.90;1.00;;;;;;5034156;28;20454;-73
2023/07/22 11:01:39;;;;;;;2.90;1.50;;;20.10;1.00;;;;;;5034850;28;20510;-73
2023/07/22 11:04:13;;;;;;;2.63;1.53;;;20.20;1.00;;;;;;5034591;28;20937;-69
2023/07/22 11:06:49;;;;;;;3.57;1.30;;;20.30;1.00;;;;;;5033639;28;20422;-72
2023/07/22 11:09:30;;;;;;;1.50;1.10;;;20.60;1.00;;;;;;5034727;28;20405;-74
2023/07/22 11:12:04;;;;;;;1.87;1.50;;;20.90;1.00;;;;;;5032500;28;20504;-71
2023/07/22 11:14:32;;;;;;;2.13;1.60;;;21.40;1.00;;;;;;5033762;28;20773;-69
2023/07/22 11:17:00;;;;;;;2.50;1.40;;;21.70;1.00;;;;;;5032525;28;20472;-68
2023/07/22 11:19:26;;;;;;;1.80;1.43;;;21.60;99.90;;;;;;5034739;28;20405;-74
2023/07/22 11:21:53;;;;;;;1.50;1.10;;;21.00;99.90;;;;;;5030416;28;20527;-71
2023/07/22 11:24:20;;;;;;;1.00;0.90;;;20.60;99.90;;;;;;5033426;28;20461;-74
2023/07/22 11:26:47;;;;;;;2.67;1.30;;;20.20;99.90;;;;;;5033295;28;20933;-73
2023/07/22 11:29:14;;;;;;;1.67;1.30;;;19.90;99.90;;;;;;5033671;28;20461;-74
2023/07/22 11:31:45;;;;;;;2.43;1.40;;;19.50;99.90;;;;;;5013989;28;20765;-73
2023/07/22 11:34:22;;;;;;;1.97;1.50;;;19.20;99.90;;;;;;5013003;28;20776;-69
2023/07/22 11:36:50;;;;;;;1.30;1.20;;;18.80;99.90;;;;;;5012516;28;20489;-73
2023/07/22 11:39:18;;;;;;;1.90;1.40;;;18.50;99.90;;;;;;5014454;28;20390;-68
2023/07/22 11:41:45;;;;;;;3.23;1.20;;;18.30;99.90;;;;;;5014383;28;20402;-70
2023/07/22 11:44:17;;;;;;;1.50;1.40;;;17.90;99.90;;;;;;5021377;28;20942;-71
2023/07/22 11:46:53;;;;;;;1.50;1.30;;;17.40;99.90;;;;;;5032333;28;20410;-74
2023/07/22 11:49:39;;;;;;;3.00;1.30;;;17.10;99.90;;;;;;5033053;28;20424;-71
2023/07/22 11:52:17;;;;;;;1.83;1.67;;;16.80;99.90;;;;;;5034007;28;20386;-70
2023/07/22 11:54:44;;;;;;;1.50;1.00;;;16.60;99.90;;;;;;5033200;28;20406;-68
2023/07/22 11:57:21;;;;;;;1.73;1.63;;;16.60;1.00;;;;;;5032823;28;20464;-66
2023/07/22 11:59:54;;;;;;;2.30;1.80;;;16.50;1.00;;;;;;5032808;28;20516;-67
2023/07/22 12:02:34;;;;;;;3.73;2.33;;;16.30;1.00;;;;;;5032582;28;20413;-66
2023/07/22 12:05:01;;;;;;;2.50;2.30;;;16.10;1.00;;;;;;5033222;28;20798;-69
2023/07/22 12:07:29;;;;;;;4.30;2.10;;;15.80;1.00;;;;;;5032350;28;20513;-70
2023/07/22 12:09:56;;;;;;;2.30;2.10;;;15.70;1.00;;;;;;5033863;28;20406;-71
2023/07/22 12:12:39;;;;;;;2.17;1.93;;;15.70;1.00;;;;;;5032699;28;20541;-71
2023/07/22 12:15:15;;;;;;;4.70;2.00;;;15.70;1.00;;;;;;5031456;28;20418;-72
2023/07/22 12:17:55;;;;;;;6.20;1.90;;;15.80;1.00;;;;;;5033595;28;20442;-67
2023/07/22 12:20:28;;;;;;;4.63;2.30;;;15.90;1.00;;;;;;5033663;28;20402;-72
2023/07/22 12:22:55;;;;;;;1.70;1.60;;;16.00;1.00;;;;;;5033211;28;20402;-72
2023/07/22 12:25:21;;;;;;;6.30;2.00;;;16.10;1.00;;;;;;5031606;28;20922;-67
2023/07/22 12:27:46;;;;;;;2.37;2.17;;;16.20;1.00;;;;;;5032410;28;20452;-68
2023/07/22 12:30:12;;;;;;;2.80;2.60;;;16.30;1.00;;;;;;5033507;28;20172;-72
2023/07/22 12:32:38;;;;;;;2.00;1.90;;;16.50;1.00;;;;;;5033147;28;20168;-67
2023/07/22 12:35:05;;;;;;;2.30;1.80;;;16.60;1.00;;;;;;5032470;28;20398;-71
2023/07/22 12:37:31;;;;;;;5.00;2.20;;;16.60;1.00;;;;;;5033323;28;20492;-69
2023/07/22 12:39:57;;;;;;;4.60;1.70;;;16.70;1.00;;;;;;5030301;28;20827;-72
2023/07/22 12:42:22;;;;;;;2.87;1.80;;;16.80;1.00;;;;;;5017781;28;20408;-67
2023/07/22 12:44:48;;;;;;;2.07;1.87;;;16.80;1.00;;;;;;5012664;28;20238;-72
2023/07/22 12:47:14;;;;;;;5.30;2.17;;;16.90;1.00;;;;;;5021947;28;20235;-71
2023/07/22 12:49:40;;;;;;;3.40;2.60;;;17.10;1.00;;;;;;5031902;28;20722;-67